Aeroporto :
LOGIN :

Iscrizione | Disclaimer

   EN    FR    IT 

 










Sommario :    VFR   VFR Marginale   IFR   IFR Intensivo   IFR Molto Intensivo
Visibilità : 
Base nubi : 
>= 8 km
>= 3000ft
5 / 8 km
1000 / 3000 ft
1500m / 5 km
500 / 1000 ft
800 / 1500m
200 / 500 ft
< 800m
< 200 ft
Simboli :   Temporali  Nebbia  Neve Forte  Precipitazioni Forti  Vento > 20 kt
SIGMETs :   Varie  Temporali  Ghiacco  Turbolenza  Onda orograficha  Ceneri Vulcaniche






- Altitudine del aeroporto : 202 ft
- Codice IATA : LGW


EGKK - London Gatwick

ULTIMO METAR :
  • 031920Z 02013KT 9999 -RA FEW030 16/10 Q1006

METARs OBSOLETI :
  • 031850Z 02013KT 9999 -RA FEW031 16/10 Q1006
  • 031820Z 02012KT 9999 FEW032 17/10 Q1005
  • 031750Z 01011KT 9999 FEW030 17/10 Q1006
  • 031720Z 02010KT 9999 FEW029 18/10 Q1006

TAF TAF EGKK
Valido dal 03 a 18 ore il 05 a 00 ore UTC


031653Z 0318/0424 01008KT 9999 SCT030
PROB40
TEMPO 0318/0324 8000 -RA
PROB30
TEMPO 0318/0324 RA BKN014
TEMPO 0400/0409 8000 -RADZ BKN012
PROB30
TEMPO 0400/0409 RA
PROB30
TEMPO 0416/0424 7000 SHRA



MetMap, La meteo Aeronautica in un colpo d'occhio ! - Copyright ORBIFLY Dicembre 2007 - Disclaimer

ORBIFLY MET'MAP TEAM :

Programmazione e sviluppo : Alexandra Zaïnal
Concezione : Baudouin d'Aumeries
Aiuto per la programmazione : Marc-Olivier Méhu
Supporto tecnico e logistico : Manuel Goepfert
Aiuto per la traduzione : Arnaldo La Scala

Contatto : metmap@orbifly.com




FONTI E CREDITI :

   NOAA